Time;durP1;ratioP1;P1;durP2;ratioP2;P2;SDS_P1;SDS_P2;PMS_P1;PMS_P2;Temp;Humidity;BMP_temperature;BMP_pressure;BME280_temperature;BME280_humidity;BME280_pressure;Samples;Min_cycle;Max_cycle;Signal;HPM_P1;HPM_P2
2022/09/19 00:01:42;;;;;;;;;;;;;;;21.41;81.29;97004.80;576003;245;66258;-70
2022/09/19 00:04:14;;;;;;;;;;;;;;;21.41;81.17;97007.47;575982;246;64976;-70
2022/09/19 00:06:42;;;;;;;;;;;;;;;21.40;81.24;97008.55;575960;246;66027;-70
2022/09/19 00:09:11;;;;;;;;;;;;;;;21.41;81.13;97010.14;575970;246;68572;-70
2022/09/19 00:11:40;;;;;;;;;;;;;;;21.40;81.10;97005.88;575945;246;64999;-70
2022/09/19 00:14:09;;;;;;;;;;;;;;;21.40;81.15;97013.91;576032;246;68832;-70
2022/09/19 00:16:44;;;;;;;;;;;;;;;21.40;81.17;97019.25;575956;246;66393;-71
2022/09/19 00:19:08;;;;;;;;;;;;;;;21.41;81.17;97012.02;575840;245;65126;-70
2022/09/19 00:21:38;;;;;;;;;;;;;;;21.41;81.23;97009.34;575961;246;66394;-71
2022/09/19 00:26:55;;;;;;;;;;;;;;;21.40;81.28;96997.86;575950;246;65271;-70
2022/09/19 00:29:21;;;;;;;;;;;;;;;21.40;81.14;96994.39;575978;242;68860;-70
2022/09/19 00:31:49;;;;;;;;;;;;;;;21.40;81.37;96989.84;575938;246;66666;-70
2022/09/19 00:34:17;;;;;;;;;;;;;;;21.40;81.20;96995.19;575965;246;65051;-70
2022/09/19 00:36:45;;;;;;;;;;;;;;;21.38;81.21;97000.00;575928;246;66590;-70
2022/09/19 00:39:14;;;;;;;;;;;;;;;21.40;81.25;96994.39;575940;246;68720;-70
2022/09/19 00:41:42;;;;;;;;;;;;;;;21.40;81.23;96997.06;575995;246;63052;-70
2022/09/19 00:44:26;;;;;;;;;;;;;;;21.39;81.00;96985.58;575942;246;68879;-70
2022/09/19 00:47:14;;;;;;;;;;;;;;;21.38;81.07;96983.96;575928;246;68735;-70
2022/09/19 00:49:43;;;;;;;;;;;;;;;21.39;81.23;96974.89;575956;246;65263;-70
2022/09/19 00:52:12;;;;;;;;;;;;;;;21.38;81.14;96989.31;575928;246;66544;-70
2022/09/19 00:54:41;;;;;;;;;;;;;;;21.38;81.13;96983.16;575959;246;66531;-70
2022/09/19 00:57:11;;;;;;;;;;;;;;;21.38;81.17;96981.28;575958;246;65097;-70
2022/09/19 00:59:40;;;;;;;;;;;;;;;21.38;81.21;96973.27;575974;246;68825;-70
2022/09/19 01:02:08;;;;;;;;;;;;;;;21.38;81.12;96978.61;575918;245;69104;-70
2022/09/19 01:04:36;;;;;;;;;;;;;;;21.39;80.95;96976.73;575948;246;65121;-70
2022/09/19 01:07:06;;;;;;;;;;;;;;;21.37;81.00;96976.20;575940;246;66534;-70
2022/09/19 01:09:38;;;;;;;;;;;;;;;21.37;80.92;96969.00;575952;246;68682;-70
2022/09/19 01:12:12;;;;;;;;;;;;;;;21.37;80.92;96966.33;575420;246;65127;-70
2022/09/19 01:14:41;;;;;;;;;;;;;;;21.37;80.93;96974.35;575949;246;68810;-70
2022/09/19 01:17:13;;;;;;;;;;;;;;;21.37;80.96;96974.35;575795;244;68753;-70
2022/09/19 01:19:42;;;;;;;;;;;;;;;21.37;80.80;96976.20;575932;246;65121;-70
2022/09/19 01:22:17;;;;;;;;;;;;;;;21.37;80.91;96977.02;575946;246;68547;-70
2022/09/19 01:24:48;;;;;;;;;;;;;;;21.36;81.06;96969.23;575844;244;68675;-71
2022/09/19 01:27:20;;;;;;;;;;;;;;;21.36;81.07;96972.73;575978;246;65076;-71
2022/09/19 01:29:49;;;;;;;;;;;;;;;21.36;80.97;96974.58;575724;244;69028;-70
2022/09/19 01:32:18;;;;;;;;;;;;;;;21.36;81.11;96975.41;575946;246;68619;-70
2022/09/19 01:34:50;;;;;;;;;;;;;;;21.36;81.02;96977.25;575965;246;65171;-70
2022/09/19 01:37:19;;;;;;;;;;;;;;;21.36;80.96;96982.60;575943;244;68832;-70
2022/09/19 01:39:49;;;;;;;;;;;;;;;21.36;80.98;96988.77;575941;244;68968;-70
2022/09/19 01:42:19;;;;;;;;;;;;;;;21.35;80.76;96984.48;576001;246;65096;-70
2022/09/19 01:44:47;;;;;;;;;;;;;;;21.36;80.98;96980.75;575982;246;68810;-70
2022/09/19 01:47:25;;;;;;;;;;;;;;;21.35;81.02;96979.13;575957;246;68774;-70
2022/09/19 01:50:00;;;;;;;;;;;;;;;21.35;81.09;96973.78;575895;245;65135;-70
2022/09/19 01:52:38;;;;;;;;;;;;;;;21.36;81.05;96971.91;575881;244;69088;-70
2022/09/19 01:55:17;;;;;;;;;;;;;;;21.34;80.89;96964.18;575857;246;68484;-71
2022/09/19 01:57:57;;;;;;;;;;;;;;;21.35;81.10;96968.44;576018;246;45230;-69
2022/09/19 02:00:27;;;;;;;;;;;;;;;21.35;80.99;96968.44;576009;244;66700;-69
2022/09/19 02:03:08;;;;;;;;;;;;;;;21.34;81.04;96969.53;575928;245;68877;-68
2022/09/19 02:05:46;;;;;;;;;;;;;;;21.34;80.82;96972.20;575934;245;46195;-68
2022/09/19 02:08:19;;;;;;;;;;;;;;;21.33;80.90;96970.58;575976;246;66839;-69
2022/09/19 02:10:49;;;;;;;;;;;;;;;21.33;80.93;96975.92;575994;244;68500;-69
2022/09/19 02:13:21;;;;;;;;;;;;;;;21.34;81.04;96969.53;575974;246;65106;-68
2022/09/19 02:15:52;;;;;;;;;;;;;;;21.33;80.87;96970.58;575743;246;48574;-68
2022/09/19 02:18:24;;;;;;;;;;;;;;;21.33;80.89;96969.78;575958;246;69073;-68
2022/09/19 02:20:53;;;;;;;;;;;;;;;21.33;81.08;96975.92;575965;244;64875;-69
2022/09/19 02:23:25;;;;;;;;;;;;;;;21.33;81.08;96964.44;575960;242;66667;-68
2022/09/19 02:25:54;;;;;;;;;;;;;;;21.32;80.90;96960.97;575974;246;68743;-68
2022/09/19 02:28:24;;;;;;;;;;;;;;;21.32;80.95;96957.51;575954;246;64960;-69
2022/09/19 02:30:53;;;;;;;;;;;;;;;21.32;80.86;96963.65;576032;246;48727;-69
2022/09/19 02:33:21;;;;;;;;;;;;;;;21.33;80.92;96957.22;575949;246;66553;-69
2022/09/19 02:35:52;;;;;;;;;;;;;;;21.32;80.89;96950.28;575979;246;64939;-68
2022/09/19 02:38:29;;;;;;;;;;;;;;;21.32;80.78;96952.95;575914;244;68587;-69
2022/09/19 02:41:10;;;;;;;;;;;;;;;21.32;81.05;96958.30;575872;244;66608;-68
2022/09/19 02:43:40;;;;;;;;;;;;;;;21.31;80.82;96948.70;575948;246;65077;-68
2022/09/19 02:46:10;;;;;;;;;;;;;;;21.31;80.94;96956.71;575966;245;66831;-68
2022/09/19 02:48:42;;;;;;;;;;;;;;;21.31;81.00;96956.71;575751;244;66681;-69
2022/09/19 02:51:11;;;;;;;;;;;;;;;21.31;81.01;96955.89;575892;246;62985;-68
2022/09/19 02:53:42;;;;;;;;;;;;;;;21.32;80.95;96957.51;575978;246;68837;-68
2022/09/19 02:56:13;;;;;;;;;;;;;;;21.31;80.90;96962.06;575991;246;50044;-69
2022/09/19 02:58:48;;;;;;;;;;;;;;;21.31;80.99;96966.58;576005;246;65047;-68
2022/09/19 03:01:17;;;;;;;;;;;;;;;21.31;81.00;96961.23;575839;244;66518;-68
2022/09/19 03:06:40;;;;;;;;;;;;;;;21.28;80.88;96958.06;570636;245;64567;-68
2022/09/19 03:09:09;;;;;;;;;;;;;;;21.29;80.94;96962.32;575878;246;66858;-70
2022/09/19 03:11:38;;;;;;;;;;;;;;;21.30;80.90;96955.09;575964;246;66799;-70
2022/09/19 03:14:07;;;;;;;;;;;;;;;21.29;80.92;96962.32;575954;246;64985;-68
2022/09/19 03:16:36;;;;;;;;;;;;;;;21.29;80.73;96966.87;576000;246;66711;-68
2022/09/19 03:19:08;;;;;;;;;;;;;;;21.31;80.93;96961.23;575909;246;68663;-68
2022/09/19 03:21:38;;;;;;;;;;;;;;;21.29;81.05;96961.53;575953;246;65079;-69
2022/09/19 03:24:06;;;;;;;;;;;;;;;21.29;80.87;96964.99;576009;246;68878;-69
2022/09/19 03:26:36;;;;;;;;;;;;;;;21.29;80.92;96964.20;576030;242;48077;-68
2022/09/19 03:29:06;;;;;;;;;;;;;;;21.29;80.88;96969.55;576011;246;65037;-68
2022/09/19 03:31:38;;;;;;;;;;;;;;;21.29;80.85;96969.55;575284;246;48194;-68
2022/09/19 03:34:09;;;;;;;;;;;;;;;21.28;80.69;96968.75;576004;246;48656;-69
2022/09/19 03:36:37;;;;;;;;;;;;;;;21.27;80.60;96967.13;575987;246;63196;-69
2022/09/19 03:39:06;;;;;;;;;;;;;;;21.28;80.60;96962.61;575948;246;68342;-68
2022/09/19 03:41:38;;;;;;;;;;;;;;;21.28;80.87;96962.61;575993;244;48223;-69
2022/09/19 03:44:06;;;;;;;;;;;;;;;21.27;80.71;96964.45;576026;246;65189;-69
2022/09/19 03:46:35;;;;;;;;;;;;;;;21.28;80.78;96957.27;575958;246;68543;-68
2022/09/19 03:49:03;;;;;;;;;;;;;;;21.28;80.74;96962.61;575961;246;66672;-69
2022/09/19 03:51:32;;;;;;;;;;;;;;;21.27;80.62;96956.44;575981;246;64925;-68
2022/09/19 03:54:01;;;;;;;;;;;;;;;21.27;80.52;96959.11;575991;246;48428;-68
2022/09/19 03:56:30;;;;;;;;;;;;;;;21.27;80.59;96956.44;576056;244;49977;-68
2022/09/19 03:58:58;;;;;;;;;;;;;;;21.26;80.65;96954.06;575936;246;65129;-68
2022/09/19 04:01:27;;;;;;;;;;;;;;;21.26;80.87;96956.73;575918;245;68931;-68
2022/09/19 04:03:57;;;;;;;;;;;;;;;21.27;80.74;96951.09;575895;246;68674;-68
2022/09/19 04:06:25;;;;;;;;;;;;;;;21.26;80.79;96956.73;575975;246;63024;-68
2022/09/19 04:08:53;;;;;;;;;;;;;;;21.27;80.83;96960.98;575968;246;66646;-69
2022/09/19 04:11:21;;;;;;;;;;;;;;;21.26;80.72;96954.06;575952;246;68883;-68
2022/09/19 04:13:50;;;;;;;;;;;;;;;21.26;80.67;96954.06;575954;246;65073;-68
2022/09/19 04:16:18;;;;;;;;;;;;;;;21.25;80.66;96952.44;575982;246;66676;-69
2022/09/19 04:18:50;;;;;;;;;;;;;;;21.25;80.63;96953.27;575983;246;68754;-69
2022/09/19 04:21:17;;;;;;;;;;;;;;;21.25;80.53;96947.09;575201;246;45071;-68
2022/09/19 04:23:46;;;;;;;;;;;;;;;21.24;80.67;96951.64;575999;242;48965;-69
2022/09/19 04:26:31;;;;;;;;;;;;;;;21.24;80.79;96943.63;576061;244;48582;-69
2022/09/19 04:29:02;;;;;;;;;;;;;;;21.24;80.69;96950.85;575941;246;63066;-68
2022/09/19 04:31:28;;;;;;;;;;;;;;;21.24;80.62;96951.64;575939;242;66822;-68
2022/09/19 04:33:56;;;;;;;;;;;;;;;21.24;80.71;96954.31;575990;246;68749;-69
2022/09/19 04:36:23;;;;;;;;;;;;;;;21.24;80.57;96953.52;575957;246;65121;-69
2022/09/19 04:38:52;;;;;;;;;;;;;;;21.23;80.59;96966.09;575966;246;66670;-69
2022/09/19 04:41:24;;;;;;;;;;;;;;;21.23;80.74;96958.08;575994;244;49374;-69
2022/09/19 04:43:53;;;;;;;;;;;;;;;21.22;80.63;96964.47;575941;246;64934;-69
2022/09/19 04:46:25;;;;;;;;;;;;;;;21.23;80.66;96957.28;572233;244;48495;-69
2022/09/19 04:48:56;;;;;;;;;;;;;;;21.23;80.64;96954.61;575988;244;48946;-69
2022/09/19 04:51:27;;;;;;;;;;;;;;;21.22;80.51;96959.13;575604;246;45051;-69
2022/09/19 04:53:55;;;;;;;;;;;;;;;21.23;80.44;96962.63;575952;246;69057;-69
2022/09/19 04:56:22;;;;;;;;;;;;;;;21.22;80.53;96958.34;575918;246;68721;-69
2022/09/19 04:58:51;;;;;;;;;;;;;;;21.22;80.50;96955.66;575946;246;65105;-69
2022/09/19 05:01:20;;;;;;;;;;;;;;;21.21;80.66;96952.20;575946;245;66713;-69
2022/09/19 05:03:48;;;;;;;;;;;;;;;21.22;80.65;96947.64;575968;246;66609;-69
2022/09/19 05:06:17;;;;;;;;;;;;;;;21.22;80.66;96950.31;575984;246;63009;-69
2022/09/19 05:08:45;;;;;;;;;;;;;;;21.22;80.59;96952.99;575962;246;68392;-68
2022/09/19 05:11:21;;;;;;;;;;;;;;;21.22;80.51;96958.34;574467;244;50598;-69
2022/09/19 05:13:51;;;;;;;;;;;;;;;21.21;80.57;96965.56;575951;246;63176;-68
2022/09/19 05:16:20;;;;;;;;;;;;;;;21.21;80.63;96960.22;576000;246;68909;-68
2022/09/19 05:18:52;;;;;;;;;;;;;;;21.20;80.54;96950.61;575772;244;49677;-69
2022/09/19 05:21:20;;;;;;;;;;;;;;;21.21;80.71;96954.08;575938;246;65063;-69
2022/09/19 05:23:47;;;;;;;;;;;;;;;21.20;80.52;96952.48;575987;246;68989;-69
2022/09/19 05:26:16;;;;;;;;;;;;;;;21.20;80.61;96947.94;575979;246;68780;-69
2022/09/19 05:28:45;;;;;;;;;;;;;;;21.20;80.50;96941.80;576053;242;47026;-70
2022/09/19 05:31:16;;;;;;;;;;;;;;;21.20;80.58;96939.92;575974;246;68918;-69
2022/09/19 05:33:45;;;;;;;;;;;;;;;21.19;80.64;96932.95;576017;244;48650;-69
2022/09/19 05:36:14;;;;;;;;;;;;;;;21.20;80.58;96939.13;575975;245;43537;-69
2022/09/19 05:39:00;;;;;;;;;;;;;;;21.20;80.55;96925.77;576077;246;39481;-69
2022/09/19 05:41:41;;;;;;;;;;;;;;;21.19;80.65;96926.81;575551;244;49945;-69
2022/09/19 05:44:16;;;;;;;;;;;;;;;21.19;80.61;96932.16;575911;245;46257;-69
2022/09/19 05:46:44;;;;;;;;;;;;;;;21.18;80.54;96926.02;576068;242;50150;-69
2022/09/19 05:49:12;;;;;;;;;;;;;;;21.19;80.66;96940.97;575920;246;66547;-69
2022/09/19 05:51:39;;;;;;;;;;;;;;;21.18;80.84;96933.25;575669;246;62961;-68
2022/09/19 05:54:09;;;;;;;;;;;;;;;21.20;80.72;96933.78;575893;246;49988;-69
2022/09/19 05:56:50;;;;;;;;;;;;;;;21.19;80.96;96934.83;575734;244;49624;-68
2022/09/19 05:59:17;;;;;;;;;;;;;;;21.18;80.85;96935.92;575970;246;62942;-72
2022/09/19 06:01:46;;;;;;;;;;;;;;;21.20;80.27;96936.45;575899;245;48827;-69
2022/09/19 06:04:15;;;;;;;;;;;;;;;21.20;79.77;96939.92;575573;246;50510;-69
2022/09/19 06:06:44;;;;;;;;;;;;;;;21.19;79.40;96929.48;575958;246;64983;-70
2022/09/19 06:09:11;;;;;;;;;;;;;;;21.19;78.85;96934.83;575928;246;66659;-69
2022/09/19 06:11:41;;;;;;;;;;;;;;;21.21;78.64;96935.37;575973;246;49946;-71
2022/09/19 06:14:14;;;;;;;;;;;;;;;21.22;78.47;96937.75;575975;246;63033;-68
2022/09/19 06:16:44;;;;;;;;;;;;;;;21.27;78.26;96936.94;575885;244;49314;-69
2022/09/19 06:19:29;;;;;;;;;;;;;;;21.29;78.68;96940.14;576152;246;39306;-70
2022/09/19 06:22:03;;;;;;;;;;;;;;;21.25;79.38;96933.73;575897;245;45053;-70
2022/09/19 06:24:31;;;;;;;;;;;;;;;21.24;79.42;96924.13;584600;242;68566;-70
2022/09/19 06:26:59;;;;;;;;;;;;;;;21.26;78.44;96930.00;584563;242;68578;-69
2022/09/19 06:29:27;;;;;;;;;;;;;;;21.27;79.34;96931.59;584594;242;65125;-70
2022/09/19 06:32:03;;;;;;;;;;;;;;;21.27;79.15;96937.73;583739;242;51403;-69
2022/09/19 06:34:32;;;;;;;;;;;;;;;21.28;79.17;96928.66;584333;242;48706;-69
2022/09/19 06:37:00;;;;;;;;;;;;;;;21.31;79.11;96929.16;584589;242;62880;-70
2022/09/19 06:39:27;;;;;;;;;;;;;;;21.32;78.62;96926.23;584586;242;68834;-69
2022/09/19 06:42:00;;;;;;;;;;;;;;;21.33;78.35;96925.14;578682;242;50297;-69
2022/09/19 06:44:32;;;;;;;;;;;;;;;21.34;78.55;96924.09;583552;242;46258;-69
2022/09/19 06:47:01;;;;;;;;;;;;;;;21.35;77.91;96925.67;584429;242;49010;-70
2022/09/19 06:49:43;;;;;;;;;;;;;;;21.35;78.99;96924.88;577935;242;49823;-69
2022/09/19 06:52:28;;;;;;;;;;;;;;;21.35;78.86;96925.67;575437;245;45282;-69
2022/09/19 06:54:57;;;;;;;;;;;;;;;21.35;78.96;96919.53;581477;242;68991;-71
2022/09/19 06:57:27;;;;;;;;;;;;;;;21.35;79.03;96922.20;584577;242;68831;-69
2022/09/19 06:59:55;;;;;;;;;;;;;;;21.35;78.96;96928.34;584610;242;62907;-72
2022/09/19 07:02:22;;;;;;;;;;;;;;;21.38;78.52;96924.36;586755;240;69020;-70
2022/09/19 07:04:51;;;;;;;;;;;;;;;21.38;78.20;96925.15;589322;240;66716;-71
2022/09/19 07:07:26;;;;;;;;;;;;;;;21.40;77.84;96914.98;587881;240;47125;-69
2022/09/19 07:09:55;;;;;;;;;;;;;;;21.38;78.11;96914.45;589239;240;50019;-69
2022/09/19 07:12:23;;;;;;;;;;;;;;;21.39;77.63;96912.58;589387;240;66313;-70
2022/09/19 07:14:52;;;;;;;;;;;;;;;21.41;77.04;96911.23;589348;240;47329;-70
2022/09/19 07:17:20;;;;;;;;;;;;;;;21.40;77.35;96912.31;589350;240;68750;-71
2022/09/19 07:19:48;;;;;;;;;;;;;;;21.39;77.18;96894.69;589317;240;68896;-70
2022/09/19 07:22:21;;;;;;;;;;;;;;;21.40;77.26;96900.83;588286;240;46355;-70
2022/09/19 07:24:50;;;;;;;;;;;;;;;21.39;77.39;96902.70;587768;240;49673;-70
2022/09/19 07:27:22;;;;;;;;;;;;;;;21.40;77.78;96903.50;583024;241;48584;-70
2022/09/19 07:29:50;;;;;;;;;;;;;;;21.40;78.75;96906.97;581146;244;65091;-71
2022/09/19 07:32:18;;;;;;;;;;;;;;;21.41;78.89;96899.74;581155;244;68909;-71
2022/09/19 07:34:45;;;;;;;;;;;;;;;21.42;79.56;96893.34;581178;244;66496;-69
2022/09/19 07:37:13;;;;;;;;;;;;;;;21.41;79.00;96897.86;581202;244;63229;-70
2022/09/19 07:39:43;;;;;;;;;;;;;;;21.42;79.67;96894.13;581209;244;48561;-69
2022/09/19 07:42:21;;;;;;;;;;;;;;;21.41;78.75;96895.19;580846;244;49610;-69
2022/09/19 07:44:50;;;;;;;;;;;;;;;21.42;78.94;96887.98;580672;244;45187;-69
2022/09/19 07:47:28;;;;;;;;;;;;;;;21.43;79.38;96885.02;580704;243;49020;-69
2022/09/19 07:50:17;;;;;;;;;;;;;;;21.44;78.55;96880.47;574660;246;50991;-73
2022/09/19 07:53:02;;;;;;;;;;;;;;;21.44;79.61;96877.80;574632;246;46243;-70
2022/09/19 07:55:31;;;;;;;;;;;;;;;21.44;79.38;96870.60;577663;244;66318;-68
2022/09/19 07:58:00;;;;;;;;;;;;;;;21.45;79.08;96872.19;581188;244;68664;-70
2022/09/19 08:00:36;;;;;;;;;;;;;;;21.44;79.03;96870.60;580991;244;47250;-71
2022/09/19 08:03:08;;;;;;;;;;;;;;;21.46;79.27;96867.63;577245;241;68789;-69
2022/09/19 08:05:37;;;;;;;;;;;;;;;21.46;78.79;96867.63;575929;246;66523;-67
2022/09/19 08:08:07;;;;;;;;;;;;;;;21.46;79.02;96859.61;575918;246;62988;-69
2022/09/19 08:10:35;;;;;;;;;;;;;;;21.46;79.55;96865.75;575905;246;66392;-69
2022/09/19 08:13:04;;;;;;;;;;;;;;;21.46;79.39;96857.73;575968;246;68814;-71
2022/09/19 08:15:33;;;;;;;;;;;;;;;21.47;79.11;96859.34;575942;243;63040;-69
2022/09/19 08:18:02;;;;;;;;;;;;;;;21.46;79.10;96854.27;575929;246;66705;-69
2022/09/19 08:20:31;;;;;;;;;;;;;;;21.46;79.27;96844.36;575928;246;68830;-69
2022/09/19 08:23:00;;;;;;;;;;;;;;;21.45;79.43;96850.80;575935;246;64947;-69
2022/09/19 08:25:33;;;;;;;;;;;;;;;21.44;79.00;96851.89;575930;246;66825;-69
2022/09/19 08:28:03;;;;;;;;;;;;;;;21.43;78.38;96836.91;575983;246;68631;-69
2022/09/19 08:30:31;;;;;;;;;;;;;;;21.42;77.43;96837.20;575944;246;65589;-69
2022/09/19 08:33:00;;;;;;;;;;;;;;;21.41;77.62;96833.70;575939;246;66816;-69
2022/09/19 08:35:28;;;;;;;;;;;;;;;21.40;77.22;96825.97;575894;246;68891;-71
2022/09/19 08:37:56;;;;;;;;;;;;;;;21.37;75.98;96827.33;575938;246;65101;-71
2022/09/19 08:40:29;;;;;;;;;;;;;;;21.36;75.68;96824.89;575947;246;66851;-71
2022/09/19 08:43:13;;;;;;;;;;;;;;;21.36;75.23;96822.21;575878;246;66701;-71
2022/09/19 08:45:44;;;;;;;;;;;;;;;21.35;74.96;96823.30;575848;245;45048;-71
2022/09/19 08:48:14;;;;;;;;;;;;;;;21.34;74.78;96816.38;575901;246;68874;-71
2022/09/19 08:50:43;;;;;;;;;;;;;;;21.33;74.59;96818.22;575763;245;66656;-72
2022/09/19 08:53:13;;;;;;;;;;;;;;;21.34;74.47;96811.81;575971;245;44815;-68
2022/09/19 08:55:41;;;;;;;;;;;;;;;21.35;74.39;96810.73;575970;246;68684;-69
2022/09/19 08:58:16;;;;;;;;;;;;;;;21.35;72.31;96808.05;575862;244;50021;-69
2022/09/19 09:00:47;;;;;;;;;;;;;;;21.39;73.48;96802.97;574694;242;45314;-69
2022/09/19 09:03:16;;;;;;;;;;;;;;;21.37;72.71;96805.12;575866;245;69302;-68
2022/09/19 09:05:59;;;;;;;;;;;;;;;21.38;72.49;96794.16;575926;246;66516;-68
2022/09/19 09:08:32;;;;;;;;;;;;;;;21.38;72.87;96790.70;575909;246;65104;-69
2022/09/19 09:11:34;;;;;;;;;;;;;;;21.38;73.98;96796.05;575856;244;51031;-69
2022/09/19 09:14:06;;;;;;;;;;;;;;;21.37;73.69;96786.41;575918;246;68871;-69
2022/09/19 09:16:53;;;;;;;;;;;;;;;21.36;74.05;96788.28;575963;246;65327;-67
2022/09/19 09:19:23;;;;;;;;;;;;;;;21.36;73.94;96785.61;575948;246;69048;-69
2022/09/19 09:22:01;;;;;;;;;;;;;;;21.35;74.51;96781.33;575950;246;66687;-71
2022/09/19 09:24:35;;;;;;;;;;;;;;;21.35;74.57;96781.33;575792;245;47397;-69
2022/09/19 09:27:05;;;;;;;;;;;;;;;21.34;74.27;96774.39;575628;244;51019;-69
2022/09/19 09:29:41;;;;;;;;;;;;;;;21.34;73.88;96773.60;575830;246;68881;-69
2022/09/19 09:32:17;;;;;;;;;;;;;;;21.35;74.21;96769.84;576046;242;48749;-67
2022/09/19 09:34:54;;;;;;;;;;;;;;;21.35;73.73;96767.17;575958;244;49659;-70
2022/09/19 09:37:23;;;;;;;;;;;;;;;21.35;73.46;96769.84;575938;246;68820;-68
2022/09/19 09:40:00;;;;;;;;;;;;;;;21.35;73.06;96767.17;575937;245;46280;-68
2022/09/19 09:42:32;;;;;;;;;;;;;;;21.35;72.80;96759.94;575957;244;48460;-69
2022/09/19 09:45:06;;;;;;;;;;;;;;;21.33;68.37;96761.30;575934;242;66083;-70
2022/09/19 09:47:43;;;;;;;;;;;;;;;21.36;69.79;96761.55;575860;246;65182;-71
2022/09/19 09:50:08;;;;;;;;;;;;;;;21.35;70.54;96751.92;575754;244;66678;-71
2022/09/19 09:52:43;;;;;;;;;;;;;;;21.34;71.50;96762.91;574652;245;69118;-70
2022/09/19 09:58:18;;;;;;;;;;;;;;;21.35;72.32;96753.80;575929;246;68886;-71
2022/09/19 10:03:49;;;;;;;;;;;;;;;21.35;73.48;96754.59;579016;245;65200;-70
2022/09/19 10:06:15;;;;;;;;;;;;;;;21.35;74.02;96748.45;579041;245;48673;-70
2022/09/19 10:08:58;;;;;;;;;;;;;;;21.33;74.44;96746.05;579305;245;68756;-68
2022/09/19 10:11:24;;;;;;;;;;;;;;;21.33;74.90;96745.26;579197;245;70920;-68
2022/09/19 10:14:01;;;;;;;;;;;;;;;21.34;73.17;96744.98;579180;245;68458;-68
2022/09/19 10:16:23;;;;;;;;;;;;;;;21.35;72.97;96748.45;579026;245;68747;-71
2022/09/19 10:18:54;;;;;;;;;;;;;;;21.32;73.59;96733.77;579290;245;65211;-69
2022/09/19 10:21:23;;;;;;;;;;;;;;;21.30;73.38;96730.58;579311;245;69046;-68
2022/09/19 10:23:53;;;;;;;;;;;;;;;21.29;73.89;96723.64;579277;245;68815;-69
2022/09/19 10:26:24;;;;;;;;;;;;;;;21.28;72.72;96716.72;579285;242;45120;-69
2022/09/19 10:28:54;;;;;;;;;;;;;;;21.31;72.03;96720.67;579244;245;69048;-69
2022/09/19 10:31:25;;;;;;;;;;;;;;;21.31;71.39;96718.00;579268;244;50212;-69
2022/09/19 10:33:55;;;;;;;;;;;;;;;21.29;70.74;96719.09;578523;245;45143;-69
2022/09/19 10:36:31;;;;;;;;;;;;;;;21.28;71.05;96712.16;579256;244;49995;-69
2022/09/19 10:39:00;;;;;;;;;;;;;;;21.29;70.86;96712.95;579175;245;68737;-68
2022/09/19 10:41:32;;;;;;;;;;;;;;;21.30;70.98;96706.52;579245;245;44579;-69
2022/09/19 10:44:01;;;;;;;;;;;;;;;21.30;70.41;96709.19;579253;245;68935;-68
2022/09/19 10:46:35;;;;;;;;;;;;;;;21.31;71.31;96709.98;579316;245;48618;-66
2022/09/19 10:49:25;;;;;;;;;;;;;;;21.35;70.61;96706.48;579424;245;39163;-68
2022/09/19 10:51:56;;;;;;;;;;;;;;;21.34;71.31;96704.90;579306;245;69179;-67
2022/09/19 10:54:26;;;;;;;;;;;;;;;21.34;71.74;96704.11;579261;245;66708;-63
2022/09/19 10:56:58;;;;;;;;;;;;;;;21.34;72.47;96704.11;579297;245;65085;-69
2022/09/19 10:59:25;;;;;;;;;;;;;;;21.33;73.21;96703.28;579169;245;66784;-67
2022/09/19 11:02:11;;;;;;;;;;;;;;;21.33;72.96;96697.14;577823;245;49113;-68
2022/09/19 11:04:41;;;;;;;;;;;;;;;21.33;72.18;96692.59;575549;246;65064;-68
2022/09/19 11:07:18;;;;;;;;;;;;;;;21.34;73.99;96682.72;575915;246;68822;-67
2022/09/19 11:09:47;;;;;;;;;;;;;;;21.32;72.15;96693.68;575866;246;48755;-67
2022/09/19 11:12:17;;;;;;;;;;;;;;;21.30;71.57;96677.12;575919;246;63036;-67
2022/09/19 11:14:46;;;;;;;;;;;;;;;21.29;70.61;96670.19;575908;246;68938;-66
2022/09/19 11:17:30;;;;;;;;;;;;;;;21.28;70.72;96661.38;575963;242;48507;-66
2022/09/19 11:20:07;;;;;;;;;;;;;;;21.31;69.50;96654.67;575883;246;65052;-67
2022/09/19 11:22:36;;;;;;;;;;;;;;;21.32;71.25;96653.59;575817;245;68735;-67
2022/09/19 11:25:08;;;;;;;;;;;;;;;21.33;70.74;96651.70;575910;246;68654;-67
2022/09/19 11:27:38;;;;;;;;;;;;;;;21.33;71.61;96649.03;575667;246;65033;-66
2022/09/19 11:30:24;;;;;;;;;;;;;;;21.33;71.99;96651.70;575198;246;68533;-67
2022/09/19 11:32:56;;;;;;;;;;;;;;;21.33;72.33;96649.83;575741;246;70518;-66
2022/09/19 11:35:29;;;;;;;;;;;;;;;21.32;73.26;96652.80;575803;246;44843;-65
2022/09/19 11:38:02;;;;;;;;;;;;;;;21.32;73.24;96647.45;575864;246;66988;-65
2022/09/19 11:40:31;;;;;;;;;;;;;;;21.32;72.97;96650.91;575888;242;66704;-65
2022/09/19 11:43:07;;;;;;;;;;;;;;;21.31;73.33;96635.97;575716;246;65130;-64
2022/09/19 11:45:39;;;;;;;;;;;;;;;21.32;73.01;96644.78;575861;246;66719;-65
2022/09/19 11:48:27;;;;;;;;;;;;;;;21.33;73.54;96638.34;575528;243;66587;-65
2022/09/19 11:51:00;;;;;;;;;;;;;;;21.32;72.51;96637.55;578236;243;65267;-68
2022/09/19 11:53:31;;;;;;;;;;;;;;;21.32;72.39;96634.88;578537;243;51672;-68
2022/09/19 11:56:08;;;;;;;;;;;;;;;21.33;75.50;96631.12;579194;243;50684;-68
2022/09/19 11:58:48;;;;;;;;;;;;;;;21.33;73.81;96628.44;578767;243;65138;-68
2022/09/19 12:01:32;;;;;;;;;;;;;;;21.33;74.61;96625.77;575890;243;66562;-67
2022/09/19 12:04:10;;;;;;;;;;;;;;;21.32;74.27;96621.52;575820;246;68634;-65
2022/09/19 12:06:41;;;;;;;;;;;;;;;21.35;75.33;96620.16;575659;246;47437;-67
2022/09/19 12:09:10;;;;;;;;;;;;;;;21.37;75.96;96621.50;575850;244;66348;-70
2022/09/19 12:11:53;;;;;;;;;;;;;;;21.40;77.00;96620.14;575944;246;68496;-70
2022/09/19 12:14:27;;;;;;;;;;;;;;;21.39;76.16;96619.34;576007;246;47605;-70
2022/09/19 12:16:56;;;;;;;;;;;;;;;21.42;77.10;96621.45;575753;246;68620;-71
2022/09/19 12:19:28;;;;;;;;;;;;;;;21.42;77.75;96623.34;575957;246;66499;-66
2022/09/19 12:21:57;;;;;;;;;;;;;;;21.42;76.97;96615.31;575879;246;62991;-64
2022/09/19 12:27:13;;;;;;;;;;;;;;;21.42;76.91;96615.31;575899;246;69157;-64
2022/09/19 12:29:48;;;;;;;;;;;;;;;21.42;76.90;96607.30;575959;246;63603;-63
2022/09/19 12:32:24;;;;;;;;;;;;;;;21.41;75.63;96606.47;575967;246;68918;-65
2022/09/19 12:34:59;;;;;;;;;;;;;;;21.37;74.73;96602.79;575683;245;68526;-62
2022/09/19 12:37:30;;;;;;;;;;;;;;;21.35;74.02;96604.12;575950;246;63051;-65
2022/09/19 12:40:03;;;;;;;;;;;;;;;21.33;73.69;96601.72;575948;246;66705;-66
2022/09/19 12:42:39;;;;;;;;;;;;;;;21.32;73.88;96602.80;575926;246;67668;-63
2022/09/19 12:45:21;;;;;;;;;;;;;;;21.33;73.62;96601.72;575744;245;65018;-65
2022/09/19 12:47:53;;;;;;;;;;;;;;;21.38;75.09;96599.02;575935;242;68776;-65
2022/09/19 12:50:23;;;;;;;;;;;;;;;21.36;75.45;96598.50;575831;244;49627;-65
2022/09/19 12:52:52;;;;;;;;;;;;;;;21.34;73.79;96597.98;575870;246;70127;-65
2022/09/19 12:55:22;;;;;;;;;;;;;;;21.33;73.71;96595.58;575699;245;69057;-65
2022/09/19 12:57:55;;;;;;;;;;;;;;;21.33;73.90;96584.89;575936;246;68876;-64
2022/09/19 13:00:24;;;;;;;;;;;;;;;21.32;73.73;96585.98;575895;246;63053;-65
2022/09/19 13:02:53;;;;;;;;;;;;;;;21.32;73.90;96573.41;575928;245;68826;-64
2022/09/19 13:05:26;;;;;;;;;;;;;;;21.32;75.20;96576.08;570565;246;69262;-65
2022/09/19 13:07:57;;;;;;;;;;;;;;;21.31;74.46;96571.83;575908;246;63092;-65
2022/09/19 13:10:38;;;;;;;;;;;;;;;21.32;74.71;96572.61;575961;246;68896;-64
2022/09/19 13:13:18;;;;;;;;;;;;;;;21.32;75.10;96559.25;575919;246;68736;-64
2022/09/19 13:15:54;;;;;;;;;;;;;;;21.32;75.65;96562.72;575944;246;65081;-64
2022/09/19 13:23:58;;;;;;;;;;;;;;;21.34;75.93;96562.45;575973;246;63124;-65
2022/09/19 13:26:32;;;;;;;;;;;;;;;21.37;75.74;96565.37;575925;246;68834;-65
2022/09/19 13:28:56;;;;;;;;;;;;;;;21.36;76.06;96558.41;575924;244;68735;-65
2022/09/19 13:31:26;;;;;;;;;;;;;;;21.36;76.15;96562.94;575963;246;65111;-65